Atlanticbeach, North Carolina
Current Conditions -  °F | °C
As of 6:58 PM on Wednesday 22 Oct 2014 (Local Time) from KMRH Reporting Station
Broken Clouds Broken Clouds  
Wind Chill: 59°   Ceiling: 5500
Heat Index: 59°   Visibility: 10mi
Dew Point: 49°   Wind: 10mph
Humidity: 69%   Direction: 300°WNW
Pressure: 29.93"   Gusts: NA
Location:  34.6984°N, 76.7775°W
Report Text: KMRH 222258Z AUTO 30009KT 10SM BKN055 15/09 A2993 RMK AO2 SLP135 T01500094 TSNO
Loading
Personal Weather Stations






























Interactive Weather Map
Tropical Storm Tracking
New forecast layout! Learn more

10-Day Weather Forecast

Advertisements
Track Severe Weather on mobile